createdAt,value
2019-01-23T00:00:53.175Z,976.34
2019-01-23T00:01:53.032Z,976.29
2019-01-23T00:03:45.943Z,976.29
2019-01-23T00:04:45.782Z,976.26
2019-01-23T00:06:38.678Z,976.21
2019-01-23T00:07:38.540Z,976.23
2019-01-23T00:09:31.426Z,976.23
2019-01-23T00:10:31.278Z,976.21
2019-01-23T00:12:24.189Z,976.15
2019-01-23T00:13:24.048Z,976.16
2019-01-23T00:15:16.946Z,976.13
2019-01-23T00:16:16.783Z,976.13
2019-01-23T00:18:10.792Z,976.16
2019-01-23T00:19:10.653Z,976.13
2019-01-23T00:21:03.544Z,976.11
2019-01-23T00:22:03.414Z,976.07
2019-01-23T00:23:56.321Z,976.06
2019-01-23T00:24:56.156Z,976.05
2019-01-23T00:26:49.049Z,976.10
2019-01-23T00:27:48.907Z,976.06
2019-01-23T00:29:41.819Z,976.10
2019-01-23T00:30:41.656Z,976.05
2019-01-23T00:32:35.053Z,976.13
2019-01-23T00:33:34.915Z,976.09
2019-01-23T00:35:27.852Z,976.05
2019-01-23T00:36:27.660Z,976.02
2019-01-23T00:38:20.549Z,976.01
2019-01-23T00:39:20.431Z,976.05
2019-01-23T00:41:13.750Z,976.02
2019-01-23T00:42:13.583Z,975.98
2019-01-23T00:44:06.463Z,976.02
2019-01-23T00:45:06.343Z,975.95
2019-01-23T00:46:59.314Z,976.00
2019-01-23T00:47:59.201Z,975.99
2019-01-23T00:49:52.080Z,975.94
2019-01-23T00:50:51.943Z,975.94
2019-01-23T00:52:44.811Z,975.96
2019-01-23T00:53:44.679Z,975.95
2019-01-23T00:55:37.792Z,975.94
2019-01-23T00:56:37.663Z,975.87
2019-01-23T00:58:30.530Z,975.84
2019-01-23T00:59:30.403Z,975.81
2019-01-23T01:01:23.290Z,975.79
2019-01-23T01:02:23.129Z,975.83
2019-01-23T01:04:16.023Z,975.81
2019-01-23T01:05:15.878Z,975.82
2019-01-23T01:07:10.235Z,975.80
2019-01-23T01:08:10.112Z,975.81
2019-01-23T01:10:02.960Z,975.82
2019-01-23T01:11:02.809Z,975.76
2019-01-23T01:12:55.707Z,975.77
2019-01-23T01:13:55.559Z,975.78
2019-01-23T01:15:48.458Z,975.77
2019-01-23T01:16:48.367Z,975.77
2019-01-23T01:18:41.225Z,975.76
2019-01-23T01:19:41.055Z,975.78
2019-01-23T01:21:33.948Z,975.79
2019-01-23T01:22:33.824Z,975.79
2019-01-23T01:24:26.688Z,975.80
2019-01-23T01:25:26.579Z,975.82
2019-01-23T01:27:19.660Z,975.81
2019-01-23T01:28:19.534Z,975.81
2019-01-23T01:30:13.060Z,975.78
2019-01-23T01:31:12.878Z,975.78
2019-01-23T01:33:05.797Z,975.79
2019-01-23T01:34:05.640Z,975.78
2019-01-23T01:35:58.516Z,975.76
2019-01-23T01:36:58.401Z,975.77
2019-01-23T01:38:51.269Z,975.75
2019-01-23T01:39:51.142Z,975.74
2019-01-23T01:41:44.038Z,975.74
2019-01-23T01:42:43.902Z,975.70
2019-01-23T01:44:36.779Z,975.72
2019-01-23T01:45:36.625Z,975.71
2019-01-23T01:47:29.615Z,975.69
2019-01-23T01:48:29.374Z,975.59
2019-01-23T01:50:23.602Z,975.62
2019-01-23T01:51:23.455Z,975.64
2019-01-23T01:53:16.361Z,975.62
2019-01-23T01:54:16.203Z,975.60
2019-01-23T01:56:09.096Z,975.60
2019-01-23T01:57:08.974Z,975.60
2019-01-23T01:59:02.934Z,975.62
2019-01-23T02:00:01.722Z,975.61
2019-01-23T02:01:54.589Z,975.57
2019-01-23T02:02:54.454Z,975.60
2019-01-23T02:04:47.377Z,975.61
2019-01-23T02:05:47.214Z,975.61
2019-01-23T02:07:40.396Z,975.56
2019-01-23T02:08:40.259Z,975.60
2019-01-23T02:10:33.189Z,975.59
2019-01-23T02:11:33.020Z,975.57
2019-01-23T02:13:25.918Z,975.57
2019-01-23T02:14:25.770Z,975.63
2019-01-23T02:16:18.662Z,975.58
2019-01-23T02:17:18.510Z,975.59
2019-01-23T02:19:11.413Z,975.52
2019-01-23T02:20:11.280Z,975.53
2019-01-23T02:22:04.167Z,975.53
2019-01-23T02:23:04.014Z,975.54
2019-01-23T02:24:56.936Z,975.49
2019-01-23T02:25:56.775Z,975.49
2019-01-23T02:27:49.700Z,975.46
2019-01-23T02:28:49.512Z,975.41
2019-01-23T02:30:42.407Z,975.34
2019-01-23T02:31:42.280Z,975.38
2019-01-23T02:33:35.168Z,975.38
2019-01-23T02:34:35.036Z,975.41
2019-01-23T02:36:27.909Z,975.38
2019-01-23T02:37:27.761Z,975.36
2019-01-23T02:39:20.667Z,975.37
2019-01-23T02:40:20.512Z,975.37
2019-01-23T02:42:13.399Z,975.36
2019-01-23T02:43:13.255Z,975.32
2019-01-23T02:45:06.153Z,975.28
2019-01-23T02:46:06.027Z,975.30
2019-01-23T02:47:59.364Z,975.27
2019-01-23T02:48:58.756Z,975.34
2019-01-23T02:50:51.658Z,975.24
2019-01-23T02:51:51.508Z,975.26
2019-01-23T02:53:44.495Z,975.21
2019-01-23T02:54:44.353Z,975.21
2019-01-23T02:56:37.257Z,975.20
2019-01-23T02:57:37.112Z,975.19
2019-01-23T02:59:29.992Z,975.16
2019-01-23T03:00:29.865Z,975.21
2019-01-23T03:02:22.761Z,975.22
2019-01-23T03:03:22.609Z,975.19
2019-01-23T03:05:15.492Z,975.17
2019-01-23T03:06:15.351Z,975.14
2019-01-23T03:08:08.257Z,975.12
2019-01-23T03:09:08.123Z,975.08
2019-01-23T03:11:01.007Z,975.06
2019-01-23T03:12:00.880Z,975.08
2019-01-23T03:13:53.645Z,975.07
2019-01-23T03:14:53.523Z,975.06
2019-01-23T03:16:46.408Z,975.07
2019-01-23T03:17:46.250Z,975.09
2019-01-23T03:19:39.135Z,975.04
2019-01-23T03:20:38.998Z,975.05
2019-01-23T03:22:31.900Z,975.07
2019-01-23T03:23:31.767Z,975.10
2019-01-23T03:25:24.645Z,975.13
2019-01-23T03:26:24.501Z,975.11
2019-01-23T03:28:17.393Z,975.09
2019-01-23T03:29:17.249Z,975.10
2019-01-23T03:31:10.850Z,975.15
2019-01-23T03:32:10.725Z,975.17
2019-01-23T03:34:03.603Z,975.18
2019-01-23T03:35:03.462Z,975.19
2019-01-23T03:36:56.367Z,975.15
2019-01-23T03:37:56.231Z,975.20
2019-01-23T03:39:49.111Z,975.21
2019-01-23T03:40:48.959Z,975.22
2019-01-23T03:42:41.853Z,975.26
2019-01-23T03:43:41.712Z,975.24
2019-01-23T03:45:34.598Z,975.29
2019-01-23T03:46:34.464Z,975.30
2019-01-23T03:48:27.373Z,975.27
2019-01-23T03:49:27.210Z,975.29
2019-01-23T03:51:20.118Z,975.28
2019-01-23T03:52:19.960Z,975.28
2019-01-23T03:54:13.163Z,975.21
2019-01-23T03:55:13.029Z,975.25
2019-01-23T03:57:05.929Z,975.23
2019-01-23T03:58:05.770Z,975.21
2019-01-23T03:59:58.666Z,975.22
2019-01-23T04:00:58.521Z,975.18
2019-01-23T04:02:51.395Z,975.19
2019-01-23T04:03:51.278Z,975.22
2019-01-23T04:05:44.166Z,975.21
2019-01-23T04:06:44.023Z,975.25
2019-01-23T04:08:36.915Z,975.22
2019-01-23T04:09:36.780Z,975.19
2019-01-23T04:11:29.769Z,975.19
2019-01-23T04:12:29.705Z,975.18
2019-01-23T04:14:22.500Z,975.18
2019-01-23T04:15:22.357Z,975.16
2019-01-23T04:17:15.254Z,975.16
2019-01-23T04:18:15.116Z,975.15
2019-01-23T04:20:08.011Z,975.15
2019-01-23T04:21:07.859Z,975.14
2019-01-23T04:23:00.783Z,975.13
2019-01-23T04:24:00.604Z,975.10
2019-01-23T04:25:53.504Z,975.09
2019-01-23T04:26:53.365Z,975.09
2019-01-23T04:28:46.251Z,975.06
2019-01-23T04:29:46.115Z,975.08
2019-01-23T04:31:38.985Z,975.05
2019-01-23T04:32:38.881Z,975.04
2019-01-23T04:34:32.225Z,975.05
2019-01-23T04:35:31.828Z,975.06
2019-01-23T04:37:24.716Z,975.10
2019-01-23T04:38:24.580Z,975.08
2019-01-23T04:40:17.469Z,975.08
2019-01-23T04:41:17.334Z,975.07
2019-01-23T04:43:11.036Z,975.07
2019-01-23T04:44:10.879Z,975.06
2019-01-23T04:46:03.769Z,975.10
2019-01-23T04:47:03.628Z,975.05
2019-01-23T04:48:56.426Z,975.05
2019-01-23T04:49:56.275Z,975.04
2019-01-23T04:51:49.086Z,974.99
2019-01-23T04:52:48.948Z,975.01
2019-01-23T04:54:41.700Z,975.03
2019-01-23T04:55:41.561Z,974.96
2019-01-23T04:57:34.385Z,975.00
2019-01-23T04:58:34.207Z,975.02
2019-01-23T05:00:27.028Z,975.07
2019-01-23T05:01:26.863Z,975.08
2019-01-23T05:03:19.686Z,975.05
2019-01-23T05:04:19.540Z,975.04
2019-01-23T05:06:12.817Z,975.06
2019-01-23T05:07:12.672Z,975.01
2019-01-23T05:09:05.467Z,974.95
2019-01-23T05:10:05.333Z,974.94
2019-01-23T05:11:58.227Z,974.93
2019-01-23T05:12:58.083Z,974.91
2019-01-23T05:14:50.859Z,974.93
2019-01-23T05:15:50.725Z,974.94
2019-01-23T05:17:43.501Z,974.98
2019-01-23T05:18:43.372Z,974.96
2019-01-23T05:20:36.858Z,974.98
2019-01-23T05:21:36.736Z,974.98
2019-01-23T05:23:29.594Z,974.96
2019-01-23T05:24:29.384Z,974.96
2019-01-23T05:26:22.372Z,974.96
2019-01-23T05:27:22.122Z,974.93
2019-01-23T05:29:14.924Z,974.96
2019-01-23T05:30:14.774Z,974.97
2019-01-23T05:32:07.575Z,975.01
2019-01-23T05:33:07.421Z,974.99
2019-01-23T05:35:00.363Z,975.02
2019-01-23T05:36:00.092Z,975.06
2019-01-23T05:37:52.887Z,975.03
2019-01-23T05:38:53.307Z,975.06
2019-01-23T05:40:45.503Z,975.07
2019-01-23T05:41:45.360Z,975.08
2019-01-23T05:43:38.275Z,975.09
2019-01-23T05:44:38.118Z,975.05
2019-01-23T05:46:30.887Z,975.13
2019-01-23T05:47:30.755Z,975.13
2019-01-23T05:49:23.545Z,975.10
2019-01-23T05:50:23.405Z,975.13
2019-01-23T05:52:16.195Z,975.09
2019-01-23T05:53:16.053Z,975.09
2019-01-23T05:55:08.842Z,975.09
2019-01-23T05:56:08.705Z,975.06
2019-01-23T05:58:03.011Z,975.07
2019-01-23T05:59:02.879Z,975.11
2019-01-23T06:00:55.678Z,975.11
2019-01-23T06:01:55.557Z,975.12
2019-01-23T06:03:48.367Z,975.08
2019-01-23T06:04:48.186Z,975.10
2019-01-23T06:06:40.990Z,975.08
2019-01-23T06:07:40.822Z,975.10
2019-01-23T06:09:33.633Z,975.10
2019-01-23T06:10:33.472Z,975.13
2019-01-23T06:12:26.253Z,975.07
2019-01-23T06:13:26.128Z,975.13
2019-01-23T06:15:18.918Z,975.12
2019-01-23T06:16:18.769Z,975.10
2019-01-23T06:18:11.567Z,975.10
2019-01-23T06:19:11.426Z,975.14
2019-01-23T06:21:04.206Z,975.13
2019-01-23T06:22:04.063Z,975.14
2019-01-23T06:23:56.851Z,975.13
2019-01-23T06:24:56.717Z,975.13
2019-01-23T06:26:49.501Z,975.15
2019-01-23T06:27:49.404Z,975.08
2019-01-23T06:29:42.162Z,975.19
2019-01-23T06:30:42.010Z,975.18
2019-01-23T06:32:34.808Z,975.22
2019-01-23T06:33:34.647Z,975.23
2019-01-23T06:35:27.436Z,975.22
2019-01-23T06:36:27.299Z,975.23
2019-01-23T06:38:20.080Z,975.22
2019-01-23T06:39:19.941Z,975.22
2019-01-23T06:41:12.828Z,975.25
2019-01-23T06:42:12.720Z,975.29
2019-01-23T06:44:05.495Z,975.33
2019-01-23T06:45:05.338Z,975.35
2019-01-23T06:46:58.128Z,975.31
2019-01-23T06:47:57.985Z,975.37
2019-01-23T06:49:50.812Z,975.34
2019-01-23T06:50:50.654Z,975.37
2019-01-23T06:52:43.933Z,975.34
2019-01-23T06:53:43.795Z,975.32
2019-01-23T06:55:36.603Z,975.30
2019-01-23T06:56:36.459Z,975.33
2019-01-23T06:58:29.261Z,975.35
2019-01-23T06:59:29.091Z,975.31
2019-01-23T07:01:21.879Z,975.36
2019-01-23T07:02:21.757Z,975.32
2019-01-23T07:04:14.538Z,975.31
2019-01-23T07:05:14.385Z,975.31
2019-01-23T07:07:07.164Z,975.32
2019-01-23T07:08:07.028Z,975.34
2019-01-23T07:09:59.837Z,975.36
2019-01-23T07:10:59.714Z,975.36
2019-01-23T07:12:52.480Z,975.39
2019-01-23T07:13:52.332Z,975.40
2019-01-23T07:15:45.111Z,975.40
2019-01-23T07:16:44.971Z,975.38
2019-01-23T07:18:37.764Z,975.39
2019-01-23T07:19:37.669Z,975.40
2019-01-23T07:21:30.423Z,975.40
2019-01-23T07:22:30.272Z,975.35
2019-01-23T07:24:23.045Z,975.40
2019-01-23T07:25:22.927Z,975.39
2019-01-23T07:27:15.699Z,975.46
2019-01-23T07:28:15.571Z,975.43
2019-01-23T07:30:08.358Z,975.38
2019-01-23T07:31:08.213Z,975.44
2019-01-23T07:33:00.998Z,975.40
2019-01-23T07:34:00.855Z,975.40
2019-01-23T07:35:53.651Z,975.43
2019-01-23T07:36:53.537Z,975.41
2019-01-23T07:38:46.290Z,975.42
2019-01-23T07:39:46.149Z,975.41
2019-01-23T07:41:39.035Z,975.44
2019-01-23T07:42:38.920Z,975.44
2019-01-23T07:44:31.692Z,975.38
2019-01-23T07:45:31.567Z,975.40
2019-01-23T07:47:24.337Z,975.39
2019-01-23T07:48:24.198Z,975.36
2019-01-23T07:50:17.006Z,975.39
2019-01-23T07:51:16.840Z,975.38
2019-01-23T07:53:09.653Z,975.36
2019-01-23T07:54:09.492Z,975.40
2019-01-23T07:56:02.279Z,975.44
2019-01-23T07:57:02.154Z,975.39
2019-01-23T07:58:54.930Z,975.40
2019-01-23T07:59:54.789Z,975.38
2019-01-23T08:01:47.563Z,975.45
2019-01-23T08:02:47.434Z,975.41
2019-01-23T08:04:40.214Z,975.39
2019-01-23T08:05:40.087Z,975.39
2019-01-23T08:07:32.854Z,975.35
2019-01-23T08:08:32.727Z,975.40
2019-01-23T08:10:25.608Z,975.36
2019-01-23T08:11:25.476Z,975.32
2019-01-23T08:13:18.793Z,975.41
2019-01-23T08:14:18.650Z,975.37
2019-01-23T08:16:11.552Z,975.40
2019-01-23T08:17:12.371Z,975.38
2019-01-23T08:19:04.172Z,975.34
2019-01-23T08:20:04.040Z,975.39
2019-01-23T08:21:56.841Z,975.34
2019-01-23T08:22:56.715Z,975.36
2019-01-23T08:24:49.583Z,975.40
2019-01-23T08:25:49.441Z,975.40
2019-01-23T08:27:42.255Z,975.41
2019-01-23T08:28:42.089Z,975.39
2019-01-23T08:30:38.924Z,975.42
2019-01-23T08:31:36.279Z,975.36
2019-01-23T08:33:29.069Z,975.37
2019-01-23T08:34:28.918Z,975.31
2019-01-23T08:36:23.231Z,975.31
2019-01-23T08:37:23.096Z,975.34
2019-01-23T08:39:16.391Z,975.31
2019-01-23T08:40:16.271Z,975.28
2019-01-23T08:42:21.755Z,975.29
2019-01-23T08:43:21.622Z,975.28
2019-01-23T08:45:21.959Z,975.29
2019-01-23T08:46:21.835Z,975.29
2019-01-23T08:48:14.611Z,975.26
2019-01-23T08:49:14.484Z,975.25
2019-01-23T08:51:10.316Z,975.28
2019-01-23T08:52:10.184Z,975.29
2019-01-23T08:54:15.673Z,975.30
2019-01-23T08:55:15.537Z,975.27
2019-01-23T08:57:08.311Z,975.27
2019-01-23T08:58:08.177Z,975.29
2019-01-23T09:00:05.980Z,975.29
2019-01-23T09:01:05.852Z,975.25
2019-01-23T09:02:58.634Z,975.28
2019-01-23T09:03:58.489Z,975.25
2019-01-23T09:05:51.286Z,975.28
2019-01-23T09:06:51.150Z,975.26
2019-01-23T09:08:43.921Z,975.32
2019-01-23T09:09:43.782Z,975.30
2019-01-23T09:11:36.577Z,975.34
2019-01-23T09:12:36.441Z,975.38
2019-01-23T09:14:29.232Z,975.40
2019-01-23T09:15:29.098Z,975.44
2019-01-23T09:17:22.384Z,975.43
2019-01-23T09:18:22.241Z,975.46
2019-01-23T09:20:15.122Z,975.50
2019-01-23T09:21:14.984Z,975.50
2019-01-23T09:23:07.806Z,975.46
2019-01-23T09:24:07.635Z,975.46
2019-01-23T09:26:00.413Z,975.48
2019-01-23T09:27:00.287Z,975.50
2019-01-23T09:28:53.276Z,975.54
2019-01-23T09:29:53.033Z,975.52
2019-01-23T09:31:45.820Z,975.52
2019-01-23T09:32:45.692Z,975.52
2019-01-23T09:34:38.584Z,975.55
2019-01-23T09:35:38.435Z,975.56
2019-01-23T09:37:31.309Z,975.59
2019-01-23T09:38:31.176Z,975.56
2019-01-23T09:40:23.962Z,975.61
2019-01-23T09:41:23.829Z,975.63
2019-01-23T09:43:16.716Z,975.64
2019-01-23T09:44:16.587Z,975.62
2019-01-23T09:46:09.517Z,975.57
2019-01-23T09:47:09.327Z,975.59
2019-01-23T09:49:02.103Z,975.62
2019-01-23T09:50:01.974Z,975.59
2019-01-23T09:51:54.775Z,975.65
2019-01-23T09:52:54.642Z,975.62
2019-01-23T09:54:47.514Z,975.58
2019-01-23T09:55:47.379Z,975.58
2019-01-23T09:57:40.254Z,975.60
2019-01-23T09:58:40.118Z,975.64
2019-01-23T10:00:33.027Z,975.59
2019-01-23T10:01:32.882Z,975.55
2019-01-23T10:03:25.656Z,975.61
2019-01-23T10:04:25.516Z,975.62
2019-01-23T10:06:18.402Z,975.61
2019-01-23T10:07:18.273Z,975.60
2019-01-23T10:09:11.044Z,975.58
2019-01-23T10:10:10.910Z,975.61
2019-01-23T10:12:03.803Z,975.60
2019-01-23T10:13:03.673Z,975.55
2019-01-23T10:14:56.556Z,975.55
2019-01-23T10:15:56.424Z,975.55
2019-01-23T10:17:49.293Z,975.55
2019-01-23T10:18:55.742Z,975.54
2019-01-23T10:20:42.082Z,975.55
2019-01-23T10:21:41.906Z,975.57
2019-01-23T10:23:34.797Z,975.54
2019-01-23T10:24:35.967Z,975.54
2019-01-23T10:26:27.566Z,975.52
2019-01-23T10:27:27.427Z,975.51
2019-01-23T10:29:20.298Z,975.51
2019-01-23T10:30:20.158Z,975.53
2019-01-23T10:32:13.058Z,975.55
2019-01-23T10:33:12.916Z,975.55
2019-01-23T10:35:05.796Z,975.56
2019-01-23T10:36:05.657Z,975.58
2019-01-23T10:37:58.563Z,975.61
2019-01-23T10:38:58.417Z,975.59
2019-01-23T10:40:51.297Z,975.59
2019-01-23T10:41:51.156Z,975.56
2019-01-23T10:43:44.063Z,975.59
2019-01-23T10:44:43.942Z,975.60
2019-01-23T10:46:36.795Z,975.61
2019-01-23T10:47:36.655Z,975.57
2019-01-23T10:49:29.628Z,975.58
2019-01-23T10:50:29.415Z,975.56
2019-01-23T10:52:22.300Z,975.55
2019-01-23T10:53:22.157Z,975.52
2019-01-23T10:55:15.069Z,975.53
2019-01-23T10:56:14.919Z,975.51
2019-01-23T10:58:08.307Z,975.47
2019-01-23T10:59:08.178Z,975.49
2019-01-23T11:01:01.252Z,975.49
2019-01-23T11:02:00.922Z,975.50
2019-01-23T11:03:53.817Z,975.51
2019-01-23T11:04:53.670Z,975.51
2019-01-23T11:06:46.544Z,975.44
2019-01-23T11:07:46.427Z,975.43
2019-01-23T11:09:39.314Z,975.43
2019-01-23T11:10:39.169Z,975.40
2019-01-23T11:12:32.370Z,975.41
2019-01-23T11:13:32.226Z,975.45
2019-01-23T11:15:25.112Z,975.40
2019-01-23T11:16:24.974Z,975.41
2019-01-23T11:18:17.866Z,975.40
2019-01-23T11:19:17.749Z,975.42
2019-01-23T11:21:10.618Z,975.41
2019-01-23T11:22:10.473Z,975.36
2019-01-23T11:24:03.366Z,975.38
2019-01-23T11:25:03.218Z,975.40
2019-01-23T11:26:56.117Z,975.38
2019-01-23T11:27:55.971Z,975.36
2019-01-23T11:29:48.873Z,975.38
2019-01-23T11:30:48.730Z,975.37
2019-01-23T11:32:41.606Z,975.35
2019-01-23T11:33:41.469Z,975.38
2019-01-23T11:35:34.379Z,975.33
2019-01-23T11:36:34.218Z,975.33
2019-01-23T11:38:27.104Z,975.35
2019-01-23T11:39:26.976Z,975.32
2019-01-23T11:41:20.362Z,975.34
2019-01-23T11:42:20.230Z,975.33
2019-01-23T11:44:13.159Z,975.38
2019-01-23T11:45:12.999Z,975.34
2019-01-23T11:47:05.883Z,975.41
2019-01-23T11:48:05.746Z,975.42
2019-01-23T11:49:58.624Z,975.40
2019-01-23T11:50:58.480Z,975.45
2019-01-23T11:52:51.374Z,975.42
2019-01-23T11:53:51.248Z,975.41
2019-01-23T11:55:44.116Z,975.39
2019-01-23T11:56:43.985Z,975.42
2019-01-23T11:58:36.968Z,975.46
2019-01-23T11:59:36.832Z,975.43
2019-01-23T12:01:30.237Z,975.43
2019-01-23T12:02:30.904Z,975.46
2019-01-23T12:04:22.975Z,975.50
2019-01-23T12:05:22.844Z,975.46
2019-01-23T12:07:15.728Z,975.48
2019-01-23T12:08:15.596Z,975.45
2019-01-23T12:10:08.488Z,975.49
2019-01-23T12:11:08.341Z,975.47
2019-01-23T12:13:01.215Z,975.44
2019-01-23T12:14:01.091Z,975.45
2019-01-23T12:15:53.984Z,975.43
2019-01-23T12:16:53.846Z,975.40
2019-01-23T12:18:46.719Z,975.34
2019-01-23T12:19:46.588Z,975.37
2019-01-23T12:21:39.509Z,975.36
2019-01-23T12:22:39.341Z,975.33
2019-01-23T12:24:32.235Z,975.41
2019-01-23T12:25:32.090Z,975.39
2019-01-23T12:27:24.989Z,975.39
2019-01-23T12:28:24.850Z,975.41
2019-01-23T12:30:17.838Z,975.39
2019-01-23T12:31:17.591Z,975.38
2019-01-23T12:33:10.596Z,975.46
2019-01-23T12:34:10.467Z,975.41
2019-01-23T12:36:03.336Z,975.42
2019-01-23T12:37:03.191Z,975.42
2019-01-23T12:38:56.100Z,975.43
2019-01-23T12:39:55.940Z,975.41
2019-01-23T12:41:48.826Z,975.46
2019-01-23T12:42:48.703Z,975.50
2019-01-23T12:44:41.564Z,975.47
2019-01-23T12:45:41.448Z,975.46
2019-01-23T12:47:34.321Z,975.42
2019-01-23T12:48:34.197Z,975.42
2019-01-23T12:50:27.102Z,975.42
2019-01-23T12:51:26.941Z,975.37
2019-01-23T12:53:19.823Z,975.44
2019-01-23T12:54:19.696Z,975.46
2019-01-23T12:56:13.096Z,975.45
2019-01-23T12:57:12.953Z,975.45
2019-01-23T12:59:05.827Z,975.44
2019-01-23T13:00:05.734Z,975.44
2019-01-23T13:01:58.578Z,975.44
2019-01-23T13:02:58.458Z,975.47
2019-01-23T13:04:51.339Z,975.43
2019-01-23T13:05:51.214Z,975.41
2019-01-23T13:07:44.097Z,975.45
2019-01-23T13:08:43.973Z,975.45
2019-01-23T13:10:36.843Z,975.46
2019-01-23T13:11:36.710Z,975.47
2019-01-23T13:13:30.448Z,975.47
2019-01-23T13:14:29.446Z,975.43
2019-01-23T13:16:22.343Z,975.47
2019-01-23T13:17:22.195Z,975.45
2019-01-23T13:19:15.089Z,975.41
2019-01-23T13:20:14.949Z,975.39
2019-01-23T13:22:07.825Z,975.39
2019-01-23T13:23:07.704Z,975.37
2019-01-23T13:25:00.588Z,975.36
2019-01-23T13:26:00.450Z,975.33
2019-01-23T13:27:53.342Z,975.37
2019-01-23T13:28:53.211Z,975.32
2019-01-23T13:30:46.117Z,975.33
2019-01-23T13:31:49.263Z,975.38
2019-01-23T13:33:38.934Z,975.36
2019-01-23T13:34:38.810Z,975.40
2019-01-23T13:36:31.676Z,975.41
2019-01-23T13:37:31.567Z,975.40
2019-01-23T13:39:24.429Z,975.40
2019-01-23T13:40:24.305Z,975.39
2019-01-23T13:42:17.182Z,975.41
2019-01-23T13:43:17.055Z,975.42
2019-01-23T13:45:09.931Z,975.46
2019-01-23T13:46:09.807Z,975.48
2019-01-23T13:48:02.687Z,975.49
2019-01-23T13:49:02.545Z,975.54
2019-01-23T13:50:56.987Z,975.53
2019-01-23T13:51:56.847Z,975.56
2019-01-23T13:53:49.924Z,975.57
2019-01-23T13:54:49.584Z,975.53
2019-01-23T13:56:42.493Z,975.54
2019-01-23T13:57:42.339Z,975.51
2019-01-23T13:59:35.215Z,975.59
2019-01-23T14:00:35.094Z,975.62
2019-01-23T14:02:27.957Z,975.62
2019-01-23T14:03:27.840Z,975.65
2019-01-23T14:05:20.720Z,975.65
2019-01-23T14:06:20.589Z,975.67
2019-01-23T14:08:13.499Z,975.65
2019-01-23T14:09:13.332Z,975.64
2019-01-23T14:11:06.223Z,975.63
2019-01-23T14:12:06.086Z,975.64
2019-01-23T14:13:58.965Z,975.67
2019-01-23T14:14:58.867Z,975.69
2019-01-23T14:16:51.715Z,975.65
2019-01-23T14:17:51.591Z,975.68
2019-01-23T14:19:44.461Z,975.70
2019-01-23T14:20:44.329Z,975.67
2019-01-23T14:22:37.229Z,975.71
2019-01-23T14:23:37.083Z,975.66
2019-01-23T14:25:29.969Z,975.67
2019-01-23T14:26:29.846Z,975.75
2019-01-23T14:28:22.714Z,975.72
2019-01-23T14:29:22.572Z,975.76
2019-01-23T14:31:15.481Z,975.78
2019-01-23T14:32:15.331Z,975.75
2019-01-23T14:34:08.211Z,975.78
2019-01-23T14:35:08.084Z,975.83
2019-01-23T14:37:00.961Z,975.87
2019-01-23T14:38:01.095Z,975.88
2019-01-23T14:39:53.705Z,975.90
2019-01-23T14:40:53.584Z,975.92
2019-01-23T14:42:46.463Z,975.94
2019-01-23T14:43:46.319Z,975.99
2019-01-23T14:45:39.248Z,976.03
2019-01-23T14:46:39.093Z,975.98
2019-01-23T14:48:31.954Z,976.01
2019-01-23T14:49:31.827Z,976.02
2019-01-23T14:51:25.330Z,976.06
2019-01-23T14:52:25.188Z,976.07
2019-01-23T14:54:18.074Z,976.02
2019-01-23T14:55:17.957Z,976.00
2019-01-23T14:57:10.822Z,976.00
2019-01-23T14:58:10.695Z,976.07
2019-01-23T15:00:03.572Z,976.07
2019-01-23T15:01:03.436Z,976.07
2019-01-23T15:02:56.329Z,976.07
2019-01-23T15:03:56.212Z,976.06
2019-01-23T15:05:49.083Z,976.08
2019-01-23T15:06:48.977Z,976.03
2019-01-23T15:08:41.822Z,976.11
2019-01-23T15:09:41.700Z,976.13
2019-01-23T15:11:34.579Z,976.09
2019-01-23T15:12:34.430Z,976.07
2019-01-23T15:14:27.351Z,976.09
2019-01-23T15:15:27.185Z,976.12
2019-01-23T15:17:20.111Z,976.12
2019-01-23T15:18:19.932Z,976.11
2019-01-23T15:20:12.835Z,976.12
2019-01-23T15:21:12.687Z,976.17
2019-01-23T15:23:05.575Z,976.15
2019-01-23T15:24:05.432Z,976.14
2019-01-23T15:25:58.332Z,976.20
2019-01-23T15:26:58.189Z,976.16
2019-01-23T15:28:51.066Z,976.20
2019-01-23T15:29:50.946Z,976.24
2019-01-23T15:31:43.822Z,976.26
2019-01-23T15:32:43.681Z,976.23
2019-01-23T15:34:36.566Z,976.28
2019-01-23T15:35:36.437Z,976.24
2019-01-23T15:37:29.319Z,976.27
2019-01-23T15:38:29.176Z,976.26
2019-01-23T15:40:22.060Z,976.32
2019-01-23T15:41:21.924Z,976.33
2019-01-23T15:43:14.827Z,976.26
2019-01-23T15:44:14.684Z,976.34
2019-01-23T15:46:07.558Z,976.38
2019-01-23T15:47:07.428Z,976.39
2019-01-23T15:49:00.310Z,976.41
2019-01-23T15:50:00.186Z,976.41
2019-01-23T15:51:53.086Z,976.44
2019-01-23T15:52:52.926Z,976.48
2019-01-23T15:54:45.805Z,976.45
2019-01-23T15:55:45.675Z,976.46
2019-01-23T15:57:38.578Z,976.46
2019-01-23T15:58:38.437Z,976.54
2019-01-23T16:00:32.037Z,976.53
2019-01-23T16:01:31.896Z,976.55
2019-01-23T16:03:24.796Z,976.52
2019-01-23T16:04:24.645Z,976.53
2019-01-23T16:06:17.522Z,976.56
2019-01-23T16:07:17.390Z,976.61
2019-01-23T16:09:11.933Z,976.58
2019-01-23T16:10:11.799Z,976.56
2019-01-23T16:12:04.771Z,976.59
2019-01-23T16:13:04.632Z,976.61
2019-01-23T16:14:57.524Z,976.60
2019-01-23T16:15:57.390Z,976.59
2019-01-23T16:17:50.264Z,976.60
2019-01-23T16:18:50.132Z,976.62
2019-01-23T16:20:43.049Z,976.63
2019-01-23T16:21:45.726Z,976.70
2019-01-23T16:23:36.276Z,976.67
2019-01-23T16:24:36.172Z,976.66
2019-01-23T16:26:29.043Z,976.61
2019-01-23T16:27:28.888Z,976.62
2019-01-23T16:29:21.803Z,976.68
2019-01-23T16:30:21.640Z,976.70
2019-01-23T16:32:15.052Z,976.71
2019-01-23T16:33:14.913Z,976.69
2019-01-23T16:35:07.784Z,976.75
2019-01-23T16:36:07.654Z,976.73
2019-01-23T16:38:01.071Z,976.78
2019-01-23T16:39:00.925Z,976.75
2019-01-23T16:40:54.166Z,976.79
2019-01-23T16:41:53.662Z,976.76
2019-01-23T16:43:46.552Z,976.80
2019-01-23T16:44:46.427Z,976.85
2019-01-23T16:46:39.336Z,976.78
2019-01-23T16:47:39.163Z,976.79
2019-01-23T16:49:32.068Z,976.86
2019-01-23T16:50:31.911Z,976.84
2019-01-23T16:52:24.905Z,976.84
2019-01-23T16:53:24.780Z,976.87
2019-01-23T16:55:17.667Z,976.86
2019-01-23T16:56:17.546Z,976.93
2019-01-23T16:58:11.247Z,976.96
2019-01-23T16:59:11.107Z,976.92
2019-01-23T17:01:03.987Z,977.02
2019-01-23T17:02:03.834Z,976.97
2019-01-23T17:03:56.745Z,976.96
2019-01-23T17:04:56.611Z,976.99
2019-01-23T17:06:49.478Z,976.96
2019-01-23T17:07:49.339Z,976.96
2019-01-23T17:09:42.229Z,976.93
2019-01-23T17:10:42.080Z,977.01
2019-01-23T17:12:34.967Z,977.05
2019-01-23T17:13:34.829Z,977.04
2019-01-23T17:15:27.758Z,977.08
2019-01-23T17:16:27.610Z,977.11
2019-01-23T17:18:20.472Z,977.10
2019-01-23T17:19:20.329Z,977.12
2019-01-23T17:21:13.646Z,977.20
2019-01-23T17:22:13.487Z,977.21
2019-01-23T17:24:06.383Z,977.25
2019-01-23T17:25:06.256Z,977.24
2019-01-23T17:26:59.244Z,977.23
2019-01-23T17:27:59.044Z,977.25
2019-01-23T17:29:52.344Z,977.24
2019-01-23T17:30:51.740Z,977.25
2019-01-23T17:32:45.784Z,977.25
2019-01-23T17:33:44.798Z,977.23
2019-01-23T17:35:37.392Z,977.28
2019-01-23T17:36:37.239Z,977.22
2019-01-23T17:38:30.121Z,977.26
2019-01-23T17:39:29.988Z,977.24
2019-01-23T17:41:22.871Z,977.31
2019-01-23T17:42:22.732Z,977.32
2019-01-23T17:44:15.625Z,977.38
2019-01-23T17:45:15.496Z,977.38
2019-01-23T17:47:08.379Z,977.44
2019-01-23T17:48:08.241Z,977.46
2019-01-23T17:50:01.167Z,977.46
2019-01-23T17:51:00.989Z,977.47
2019-01-23T17:52:53.881Z,977.51
2019-01-23T17:53:53.734Z,977.52
2019-01-23T17:55:46.544Z,977.53
2019-01-23T17:56:46.400Z,977.60
2019-01-23T17:58:39.195Z,977.58